FGLMH LFPB-LFMD
Flight info
| Callsign | FGLMH |
|---|---|
| Flight time | N/A |
| Altitude | 35000 |
| Route | LATRA6J/09 LATRA DCT LAMUT DCT UTUVA DCT LERGA DCT LIQID DCT LATAM DCT MTL DCT XATEL |
| Aircraft | C25C/M-SDE2E3FGHRWXY/LB1 |
Departure
| Time | 2026-04-21 19:34 |
|---|---|
| Airport | Paris-Le Bourget International Airport (LFPB) |
Arrival
| Time | N/A |
|---|---|
| Airport | Cannes Mandelieu Airport (LFMD) |
| Time | Latitude | Longitude | Altitude | Speed | Heading |
|---|---|---|---|---|---|
| 2026-04-21 19:03 | 48.96271 | 2.44715 | 165 ft | 0 kts | 1° |
| 2026-04-21 19:24 | 48.96298 | 2.44715 | 165 ft | 11 kts | 350° |
| 2026-04-21 19:24 | 48.96342 | 2.44616 | 165 ft | 11 kts | 279° |
| 2026-04-21 19:25 | 48.96325 | 2.44496 | 166 ft | 12 kts | 217° |
| 2026-04-21 19:25 | 48.96315 | 2.44489 | 166 ft | 4 kts | 198° |
| 2026-04-21 19:25 | 48.96247 | 2.44443 | 165 ft | 18 kts | 205° |
| 2026-04-21 19:25 | 48.96121 | 2.44355 | 157 ft | 20 kts | 205° |
| 2026-04-21 19:26 | 48.95980 | 2.44256 | 155 ft | 25 kts | 204° |
| 2026-04-21 19:26 | 48.95823 | 2.44146 | 150 ft | 25 kts | 205° |
| 2026-04-21 19:26 | 48.95711 | 2.44064 | 149 ft | 6 kts | 224° |
| 2026-04-21 19:26 | 48.95703 | 2.43961 | 147 ft | 15 kts | 294° |
| 2026-04-21 19:27 | 48.95756 | 2.43795 | 149 ft | 20 kts | 295° |
| 2026-04-21 19:27 | 48.95805 | 2.43635 | 149 ft | 10 kts | 295° |
| 2026-04-21 19:27 | 48.95829 | 2.43555 | 154 ft | 11 kts | 295° |
| 2026-04-21 19:27 | 48.95881 | 2.43387 | 155 ft | 25 kts | 295° |
| 2026-04-21 19:28 | 48.95972 | 2.43103 | 150 ft | 31 kts | 303° |
| 2026-04-21 19:28 | 48.96109 | 2.42836 | 147 ft | 32 kts | 308° |
| 2026-04-21 19:28 | 48.96169 | 2.42724 | 150 ft | 5 kts | 309° |
| 2026-04-21 19:28 | 48.96250 | 2.42570 | 155 ft | 26 kts | 309° |
| 2026-04-21 19:29 | 48.96295 | 2.42501 | 155 ft | 0 kts | 343° |
| 2026-04-21 19:29 | 48.96304 | 2.42497 | 155 ft | 15 kts | 343° |
| 2026-04-21 19:30 | 48.96396 | 2.42504 | 156 ft | 3 kts | 78° |
| 2026-04-21 19:30 | 48.96397 | 2.42517 | 156 ft | 0 kts | 86° |
| 2026-04-21 19:33 | 48.96398 | 2.42528 | 155 ft | 14 kts | 86° |
| 2026-04-21 19:34 | 48.96444 | 2.43371 | 164 ft | 140 kts | 87° |
| 2026-04-21 19:34 | 48.96552 | 2.45297 | 498 ft | 220 kts | 85° |
| 2026-04-21 19:34 | 48.96685 | 2.47667 | 787 ft | 223 kts | 86° |
| 2026-04-21 19:34 | 48.96772 | 2.49894 | 1469 ft | 204 kts | 86° |
| 2026-04-21 19:35 | 48.96886 | 2.52111 | 1513 ft | 217 kts | 85° |
| 2026-04-21 19:35 | 48.96724 | 2.56658 | 2147 ft | 209 kts | 104° |
| 2026-04-21 19:35 | 48.96468 | 2.58786 | 2562 ft | 203 kts | 97° |
| 2026-04-21 19:36 | 48.96303 | 2.60876 | 2968 ft | 196 kts | 96° |
| 2026-04-21 19:36 | 48.96170 | 2.62910 | 3386 ft | 191 kts | 95° |
| 2026-04-21 19:36 | 48.96040 | 2.64899 | 3799 ft | 187 kts | 96° |
| 2026-04-21 19:36 | 48.95908 | 2.66844 | 4209 ft | 183 kts | 96° |
| 2026-04-21 19:37 | 48.95780 | 2.68735 | 4613 ft | 177 kts | 96° |
| 2026-04-21 19:37 | 48.95649 | 2.70576 | 5021 ft | 173 kts | 95° |
| 2026-04-21 19:37 | 48.95516 | 2.72470 | 5444 ft | 206 kts | 96° |
| 2026-04-21 19:37 | 48.95348 | 2.74953 | 5909 ft | 252 kts | 96° |
| 2026-04-21 19:38 | 48.95161 | 2.77614 | 6372 ft | 251 kts | 96° |
| 2026-04-21 19:38 | 48.94896 | 2.80237 | 6820 ft | 252 kts | 98° |
| 2026-04-21 19:38 | 48.94775 | 2.82920 | 6630 ft | 274 kts | 85° |
| 2026-04-21 19:38 | 48.95693 | 2.84482 | 8796 ft | 400 kts | 26° |